Time;durP1;ratioP1;P1;durP2;ratioP2;P2;SDS_P1;SDS_P2;PMS_P1;PMS_P2;Temp;Humidity;BMP_temperature;BMP_pressure;BME280_temperature;BME280_humidity;BME280_pressure;Samples;Min_cycle;Max_cycle;Signal;HPM_P1;HPM_P2
2023/06/10 00:00:21;;;;;;;9.10;7.10;;;;;;;18.84;55.37;100440.20;102458;279;120033;-58
2023/06/10 00:03:13;;;;;;;9.00;6.80;;;;;;;18.80;55.21;100442.85;102410;279;106144;-58
2023/06/10 00:05:52;;;;;;;11.00;6.70;;;;;;;18.76;55.20;100447.31;102483;279;115250;-58
2023/06/10 00:08:31;;;;;;;7.90;6.30;;;;;;;18.73;55.02;100452.44;102449;279;94427;-58
2023/06/10 00:11:07;;;;;;;8.70;5.80;;;;;;;18.67;54.81;100453.36;102469;279;97120;-59
2023/06/10 00:13:40;;;;;;;7.10;4.70;;;;;;;18.65;54.78;100453.14;102487;279;121174;-59
2023/06/10 00:16:17;;;;;;;10.00;5.40;;;;;;;18.60;54.59;100449.48;102398;279;102973;-55
2023/06/10 00:18:51;;;;;;;10.10;5.90;;;;;;;18.57;54.45;100447.49;102407;279;114022;-58
2023/06/10 00:21:25;;;;;;;6.10;5.50;;;;;;;18.54;54.21;100447.30;102494;279;92941;-59
2023/06/10 00:24:05;;;;;;;10.20;5.50;;;;;;;18.50;53.86;100442.63;102567;279;98169;-58
2023/06/10 00:26:41;;;;;;;8.50;4.90;;;;;;;18.45;53.59;100448.49;102552;279;120343;-58
2023/06/10 00:29:15;;;;;;;7.20;5.00;;;;;;;18.42;53.22;100445.52;102531;279;106468;-58
2023/06/10 00:31:57;;;;;;;8.00;5.10;;;;;;;18.39;52.95;100446.02;102365;279;114696;-59
2023/06/10 00:34:32;;;;;;;7.70;5.10;;;;;;;18.33;52.82;100442.59;102445;279;94335;-58
2023/06/10 00:37:04;;;;;;;10.30;5.20;;;;;;;18.29;52.46;100443.83;102393;279;96949;-58
2023/06/10 00:39:37;;;;;;;9.60;5.10;;;;;;;18.27;52.12;100440.71;102391;279;120962;-55
2023/06/10 00:42:10;;;;;;;6.60;5.60;;;;;;;18.25;51.92;100440.33;102399;279;105501;-56
2023/06/10 00:44:41;;;;;;;8.60;4.90;;;;;;;18.21;51.67;100441.06;102399;279;113524;-55
2023/06/10 00:47:14;;;;;;;8.20;6.10;;;;;;;18.19;51.55;100441.44;102415;279;92089;-53
2023/06/10 00:49:57;;;;;;;8.70;5.40;;;;;;;18.14;51.31;100440.13;102425;279;98152;-58
2023/06/10 00:52:36;;;;;;;8.40;4.90;;;;;;;18.09;51.43;100443.47;102427;279;120542;-58
2023/06/10 00:55:08;;;;;;;8.90;4.70;;;;;;;18.04;51.31;100443.11;102457;279;105945;-55
2023/06/10 00:57:48;;;;;;;8.80;5.30;;;;;;;17.99;51.17;100440.81;102405;279;113350;-56
2023/06/10 01:00:20;;;;;;;9.60;4.90;;;;;;;17.98;50.99;100450.57;102431;279;94812;-55
2023/06/10 01:02:57;;;;;;;10.20;4.60;;;;;;;17.93;51.10;100451.48;102447;279;97896;-56
2023/06/10 01:05:36;;;;;;;7.30;4.60;;;;;;;17.88;51.10;100452.70;102408;280;120946;-55
2023/06/10 01:08:25;;;;;;;7.20;4.60;;;;;;;17.84;50.97;100454.93;102285;279;105610;-55
2023/06/10 01:11:08;;;;;;;8.00;5.10;;;;;;;17.78;50.90;100453.84;102453;279;114134;-59
2023/06/10 01:13:44;;;;;;;7.10;4.40;;;;;;;17.72;50.91;100455.37;102478;279;94494;-57
2023/06/10 01:16:20;;;;;;;8.80;5.00;;;;;;;17.66;51.01;100459.83;102444;279;98306;-58
2023/06/10 01:18:55;;;;;;;8.70;6.20;;;;;;;17.61;51.08;100454.71;102451;279;120758;-55
2023/06/10 01:21:38;;;;;;;9.20;4.70;;;;;;;17.51;51.32;100460.33;102450;279;104810;-54
2023/06/10 01:24:18;;;;;;;6.00;5.40;;;;;;;17.43;51.34;100455.40;102391;279;114228;-56
2023/06/10 01:26:51;;;;;;;8.40;5.20;;;;;;;17.37;51.37;100456.29;102443;279;94420;-56
2023/06/10 01:29:34;;;;;;;6.80;5.70;;;;;;;17.31;51.42;100454.73;102364;279;98257;-56
2023/06/10 01:32:12;;;;;;;8.40;4.90;;;;;;;17.27;51.55;100459.05;102414;279;120864;-55
2023/06/10 01:34:50;;;;;;;7.30;5.20;;;;;;;17.22;51.55;100458.98;102449;279;106184;-54
2023/06/10 01:37:26;;;;;;;8.50;5.00;;;;;;;17.19;51.64;100462.67;102414;279;113605;-55
2023/06/10 01:40:00;;;;;;;6.50;4.50;;;;;;;17.17;51.76;100462.77;102505;279;95453;-58
2023/06/10 01:42:36;;;;;;;5.90;4.80;;;;;;;17.16;51.68;100465.63;102473;279;96622;-59
2023/06/10 01:45:10;;;;;;;7.00;5.00;;;;;;;17.11;51.74;100467.41;102460;279;121210;-58
2023/06/10 01:47:44;;;;;;;;;;;;;;;17.07;51.92;100472.31;102435;279;106153;-59
2023/06/10 01:50:19;;;;;;;6.70;4.70;;;;;;;17.04;51.99;100473.45;102395;279;113629;-55
2023/06/10 01:52:51;;;;;;;6.10;4.60;;;;;;;17.02;52.14;100476.05;102385;279;93522;-56
2023/06/10 01:55:22;;;;;;;6.00;4.70;;;;;;;16.99;52.28;100477.02;102459;279;96851;-55
2023/06/10 01:57:54;;;;;;;8.20;5.70;;;;;;;16.97;52.25;100480.23;102394;279;120820;-54
2023/06/10 02:00:26;;;;;;;9.50;5.10;;;;;;;16.96;52.50;100480.36;102382;279;105814;-55
2023/06/10 02:03:01;;;;;;;8.50;5.50;;;;;;;16.93;52.63;100484.38;102223;281;117082;-55
2023/06/10 02:05:32;;;;;;;9.90;5.60;;;;;;;16.92;52.79;100485.41;102451;279;94855;-55
2023/06/10 02:08:08;;;;;;;10.10;5.10;;;;;;;16.90;52.72;100484.00;102431;279;97937;-55
2023/06/10 02:10:44;;;;;;;9.50;5.20;;;;;;;16.87;52.87;100485.02;102423;279;119238;-55
2023/06/10 02:13:22;;;;;;;9.00;5.40;;;;;;;16.84;52.80;100490.63;102457;279;105342;-55
2023/06/10 02:16:00;;;;;;;12.00;5.30;;;;;;;16.81;53.15;100493.34;102444;279;113903;-56
2023/06/10 02:18:42;;;;;;;9.00;5.30;;;;;;;16.78;53.32;100496.27;102410;279;94010;-55
2023/06/10 02:21:22;;;;;;;10.50;6.80;;;;;;;16.76;53.29;100494.71;102293;281;97471;-58
2023/06/10 02:23:54;;;;;;;9.30;6.30;;;;;;;16.74;53.52;100492.80;102410;279;119447;-57
2023/06/10 02:26:29;;;;;;;10.30;6.00;;;;;;;16.71;53.52;100490.40;102428;279;104883;-58
2023/06/10 02:29:03;;;;;;;12.40;6.70;;;;;;;16.67;53.69;100493.67;102303;279;114420;-60
2023/06/10 02:31:45;;;;;;;9.30;6.20;;;;;;;16.64;53.91;100499.62;102447;279;94105;-59
2023/06/10 02:34:27;;;;;;;9.40;6.20;;;;;;;16.59;54.00;100500.64;102402;279;97970;-55
2023/06/10 02:37:05;;;;;;;11.30;6.50;;;;;;;16.55;54.09;100503.61;102382;279;120245;-55
2023/06/10 02:39:40;;;;;;;12.40;7.10;;;;;;;16.55;54.30;100507.83;102426;279;106178;-56
2023/06/10 02:42:18;;;;;;;12.20;6.90;;;;;;;16.52;54.58;100511.48;102295;279;111995;-56
2023/06/10 02:45:01;;;;;;;10.30;6.50;;;;;;;16.51;54.61;100511.69;102401;279;93868;-56
2023/06/10 02:47:39;;;;;;;14.90;6.60;;;;;;;16.52;54.69;100510.80;102310;279;96893;-56
2023/06/10 02:50:11;;;;;;;11.90;7.30;;;;;;;16.53;54.80;100511.39;102430;279;120562;-59
2023/06/10 02:52:50;;;;;;;13.40;6.40;;;;;;;16.54;54.93;100509.63;102430;279;103370;-59
2023/06/10 02:55:32;;;;;;;12.90;7.10;;;;;;;16.58;54.95;100513.25;102421;279;115023;-58
2023/06/10 02:58:09;;;;;;;12.90;7.20;;;;;;;16.60;55.12;100513.09;102393;279;94134;-58
2023/06/10 03:00:44;;;;;;;13.30;7.50;;;;;;;16.63;55.23;100515.52;102505;279;96234;-59
2023/06/10 03:03:22;;;;;;;16.80;8.50;;;;;;;16.68;55.29;100516.08;102507;279;119246;-58
2023/06/10 03:05:58;;;;;;;19.00;8.60;;;;;;;16.75;55.28;100523.21;102487;279;104770;-59
2023/06/10 03:08:34;;;;;;;15.00;7.90;;;;;;;16.82;55.39;100521.08;102476;279;114311;-58
2023/06/10 03:11:05;;;;;;;17.00;8.20;;;;;;;16.89;55.33;100519.95;102317;280;93290;-55
2023/06/10 03:14:00;;;;;;;11.30;6.20;;;;;;;16.96;55.34;100517.60;102498;279;95902;-56
2023/06/10 03:16:40;;;;;;;9.50;5.60;;;;;;;17.04;55.53;100517.55;102361;280;121319;-56
2023/06/10 03:19:14;;;;;;;11.70;5.90;;;;;;;17.13;55.49;100523.16;101815;279;106787;-57
2023/06/10 03:22:10;;;;;;;8.80;5.30;;;;;;;17.22;55.36;100522.15;102472;279;113829;-57
2023/06/10 03:24:43;;;;;;;8.00;5.00;;;;;;;17.35;55.13;100519.08;102380;280;94408;-59
2023/06/10 03:27:18;;;;;;;9.60;4.60;;;;;;;17.58;54.93;100517.73;102382;280;96549;-58
2023/06/10 03:29:55;;;;;;;7.20;4.70;;;;;;;17.95;54.55;100522.11;102498;279;121184;-55
2023/06/10 03:32:32;;;;;;;7.20;4.30;;;;;;;18.72;53.83;100524.11;102485;279;106049;-55
2023/06/10 03:35:06;;;;;;;7.20;4.60;;;;;;;19.55;53.00;100522.98;102534;279;113966;-59
2023/06/10 03:37:46;;;;;;;6.50;4.10;;;;;;;20.63;51.79;100520.73;102527;279;93849;-58
2023/06/10 03:40:18;;;;;;;7.90;4.10;;;;;;;21.66;50.15;100524.63;102487;279;98091;-55
2023/06/10 03:43:02;;;;;;;6.80;4.60;;;;;;;22.36;48.74;100527.29;102331;280;121455;-55
2023/06/10 03:45:43;;;;;;;5.20;4.30;;;;;;;23.36;47.69;100520.67;102481;279;103962;-57
2023/06/10 03:48:16;;;;;;;8.60;4.20;;;;;;;24.29;45.91;100521.77;102449;279;114742;-58
2023/06/10 03:50:53;;;;;;;6.60;4.30;;;;;;;25.03;44.78;100520.61;102457;279;93936;-57
2023/06/10 03:53:33;;;;;;;7.90;4.90;;;;;;;25.73;43.36;100522.27;102451;279;98243;-56
2023/06/10 03:56:12;;;;;;;7.20;5.30;;;;;;;26.20;42.39;100525.61;102452;279;119683;-58
2023/06/10 03:58:51;;;;;;;8.70;4.50;;;;;;;26.69;41.32;100528.84;102466;279;105717;-56
2023/06/10 04:01:27;;;;;;;7.40;4.80;;;;;;;27.02;40.23;100529.17;102430;279;113586;-56
2023/06/10 04:04:01;;;;;;;10.30;4.50;;;;;;;27.21;39.45;100529.83;102457;279;94584;-58
2023/06/10 04:06:37;;;;;;;7.50;4.60;;;;;;;27.69;38.73;100527.55;102486;279;96382;-58
2023/06/10 04:09:10;;;;;;;7.50;4.40;;;;;;;27.90;37.83;100525.41;102278;279;123051;-55
2023/06/10 04:11:53;;;;;;;6.40;4.00;;;;;;;28.18;37.05;100527.63;102467;279;105656;-56
2023/06/10 04:14:30;;;;;;;6.60;4.00;;;;;;;28.53;36.60;100526.29;102274;281;117082;-59
2023/06/10 04:17:06;;;;;;;7.70;4.30;;;;;;;28.21;35.74;100529.05;102505;279;93538;-57
2023/06/10 04:19:42;;;;;;;7.40;4.10;;;;;;;28.07;35.96;100523.40;102568;279;97080;-59
2023/06/10 04:22:18;;;;;;;6.60;3.70;;;;;;;27.88;35.76;100526.05;102493;279;120373;-59
2023/06/10 04:24:58;;;;;;;6.90;4.00;;;;;;;27.09;35.97;100529.23;102497;279;105203;-56
2023/06/10 04:27:41;;;;;;;6.30;4.40;;;;;;;26.23;36.58;100535.88;102479;279;113948;-56
2023/06/10 04:30:16;;;;;;;11.20;4.30;;;;;;;25.49;37.26;100536.89;102458;279;94505;-55
2023/06/10 04:32:50;;;;;;;8.70;4.20;;;;;;;25.02;37.86;100536.95;102352;280;97682;-54
2023/06/10 04:35:30;;;;;;;6.50;4.00;;;;;;;24.67;38.47;100538.60;102545;279;119979;-59
2023/06/10 04:38:05;;;;;;;9.30;4.80;;;;;;;24.21;38.96;100537.95;102377;279;104730;-59
2023/06/10 04:40:41;;;;;;;9.40;4.80;;;;;;;23.67;39.62;100535.14;102485;279;113760;-56
2023/06/10 04:43:18;;;;;;;5.70;4.20;;;;;;;23.48;40.27;100537.80;102333;279;94581;-56
2023/06/10 04:46:01;;;;;;;6.80;4.40;;;;;;;23.76;40.46;100537.09;102432;279;96818;-58
2023/06/10 04:48:42;;;;;;;7.00;4.70;;;;;;;25.10;39.81;100539.16;102364;279;120726;-58
2023/06/10 04:51:16;;;;;;;8.00;4.40;;;;;;;26.75;38.81;100541.67;102461;279;106295;-56
2023/06/10 04:53:51;;;;;;;;;;;;;;;27.96;37.15;100535.60;102426;279;113344;-56
2023/06/10 04:56:22;;;;;;;6.30;3.90;;;;;;;28.82;36.35;100534.94;102371;279;95010;-56
2023/06/10 04:59:07;;;;;;;7.50;4.20;;;;;;;29.58;35.27;100531.27;102416;279;97358;-55
2023/06/10 05:01:41;;;;;;;8.80;4.30;;;;;;;30.40;34.33;100534.48;102436;279;120060;-54
2023/06/10 05:04:18;;;;;;;8.10;3.90;;;;;;;30.80;33.42;100539.45;102408;279;103835;-57
2023/06/10 05:06:59;;;;;;;6.20;4.00;;;;;;;30.82;32.84;100548.21;102406;279;114721;-58
2023/06/10 05:09:34;;;;;;;5.80;3.80;;;;;;;31.30;32.27;100548.17;102456;279;94717;-57
2023/06/10 05:12:08;;;;;;;6.50;4.10;;;;;;;31.89;31.66;100543.52;102430;279;96751;-58
2023/06/10 05:14:50;;;;;;;7.30;4.40;;;;;;;32.29;31.16;100543.14;102444;279;119910;-58
2023/06/10 05:17:28;;;;;;;7.10;3.90;;;;;;;32.77;30.38;100544.78;102408;279;104472;-57
2023/06/10 05:20:00;;;;;;;4.80;3.30;;;;;;;32.97;29.89;100546.05;102417;279;113583;-56
2023/06/10 05:22:42;;;;;;;6.40;4.10;;;;;;;33.24;29.52;100542.02;102436;279;92180;-57
2023/06/10 05:25:14;;;;;;;7.30;4.20;;;;;;;33.80;28.85;100543.02;102519;279;97508;-60
2023/06/10 05:27:51;;;;;;;6.20;4.00;;;;;;;34.11;28.26;100543.70;102522;279;118935;-59
2023/06/10 05:30:26;;;;;;;8.20;4.70;;;;;;;34.70;27.67;100543.10;102436;279;106114;-55
2023/06/10 05:33:01;;;;;;;8.40;4.20;;;;;;;34.70;27.31;100543.19;102387;279;114639;-55
2023/06/10 05:35:43;;;;;;;7.00;3.50;;;;;;;34.53;26.83;100544.90;102466;275;95070;-56
2023/06/10 05:38:21;;;;;;;5.20;3.80;;;;;;;33.98;27.18;100547.48;102428;279;97774;-56
2023/06/10 05:40:58;;;;;;;7.60;4.50;;;;;;;34.24;26.84;100549.74;102384;280;122482;-58
2023/06/10 05:43:31;;;;;;;6.50;4.00;;;;;;;34.67;26.56;100546.67;102368;280;105634;-58
2023/06/10 05:46:10;;;;;;;6.00;3.60;;;;;;;35.16;26.15;100550.91;102462;279;113080;-56
2023/06/10 05:48:57;;;;;;;7.40;3.80;;;;;;;35.60;25.67;100554.00;102404;279;93527;-57
2023/06/10 05:51:29;;;;;;;5.90;3.90;;;;;;;35.75;25.45;100558.80;102409;279;97707;-57
2023/06/10 05:54:01;;;;;;;8.10;4.30;;;;;;;36.12;25.26;100554.83;102443;279;121347;-55
2023/06/10 05:56:33;;;;;;;7.80;3.70;;;;;;;35.85;25.04;100553.98;102426;279;105656;-56
2023/06/10 05:59:05;;;;;;;7.20;4.10;;;;;;;36.33;24.94;100554.73;102397;279;115138;-55
2023/06/10 06:01:39;;;;;;;4.40;3.90;;;;;;;35.99;24.53;100555.23;102384;279;94095;-54
2023/06/10 06:04:11;;;;;;;4.90;3.90;;;;;;;36.41;24.51;100558.52;102448;279;98632;-58
2023/06/10 06:06:51;;;;;;;6.10;3.70;;;;;;;36.42;24.37;100561.85;102404;279;121284;-57
2023/06/10 06:09:26;;;;;;;6.00;4.50;;;;;;;35.78;24.38;100566.86;102400;279;106204;-55
2023/06/10 06:12:03;;;;;;;5.30;4.70;;;;;;;35.76;24.31;100563.19;102407;279;114866;-55
2023/06/10 06:14:39;;;;;;;7.50;4.30;;;;;;;36.02;24.39;100561.02;102406;279;94766;-57
2023/06/10 06:17:14;;;;;;;9.20;4.30;;;;;;;35.82;24.27;100564.59;102406;279;97332;-58
2023/06/10 06:19:49;;;;;;;7.70;3.80;;;;;;;35.99;24.42;100567.92;102424;279;121750;-55
2023/06/10 06:22:28;;;;;;;7.40;4.00;;;;;;;35.78;24.32;100563.15;102433;268;105778;-55
2023/06/10 06:25:02;;;;;;;7.80;4.20;;;;;;;36.17;24.49;100566.48;102487;279;114080;-58
2023/06/10 06:27:33;;;;;;;7.00;5.20;;;;;;;36.64;23.88;100564.76;102454;279;95265;-59
2023/06/10 06:30:09;;;;;;;8.20;4.90;;;;;;;37.30;23.64;100557.91;102436;279;97037;-55
2023/06/10 06:32:41;;;;;;;9.00;4.50;;;;;;;37.85;23.55;100560.81;102422;279;120068;-56
2023/06/10 06:35:15;;;;;;;6.20;3.90;;;;;;;37.92;22.89;100560.89;102451;279;106098;-58
2023/06/10 06:37:50;;;;;;;8.70;4.10;;;;;;;38.03;22.35;100559.45;102350;279;114939;-58
2023/06/10 06:40:29;;;;;;;6.80;4.20;;;;;;;38.35;22.40;100561.30;102439;279;92646;-58
2023/06/10 06:43:11;;;;;;;6.00;3.80;;;;;;;37.55;22.58;100566.42;102391;279;97318;-58
2023/06/10 06:45:42;;;;;;;8.60;4.30;;;;;;;36.76;22.98;100567.64;102426;279;121510;-59
2023/06/10 06:48:15;;;;;;;5.30;4.00;;;;;;;36.04;23.35;100571.06;102472;279;104440;-59
2023/06/10 06:50:51;;;;;;;5.30;3.60;;;;;;;35.96;23.33;100570.09;102480;279;114615;-58
2023/06/10 06:53:30;;;;;;;9.10;4.40;;;;;;;35.92;23.57;100577.20;102400;279;94665;-60
2023/06/10 06:56:07;;;;;;;7.90;4.20;;;;;;;35.92;23.65;100575.50;102433;279;97147;-55
2023/06/10 06:58:39;;;;;;;7.30;4.20;;;;;;;36.57;23.33;100576.44;102421;279;120834;-56
2023/06/10 07:01:19;;;;;;;5.00;4.20;;;;;;;37.05;22.60;100572.38;102442;279;106082;-56
2023/06/10 07:04:04;;;;;;;5.20;4.20;;;;;;;37.50;22.58;100571.55;102402;280;112670;-55
2023/06/10 07:06:38;;;;;;;7.10;4.20;;;;;;;37.71;21.66;100578.30;102342;280;92888;-56
2023/06/10 07:09:13;;;;;;;5.80;4.40;;;;;;;37.46;21.97;100575.81;102433;279;96949;-56
2023/06/10 07:11:49;;;;;;;7.40;4.10;;;;;;;37.07;22.26;100575.61;102446;279;121244;-55
2023/06/10 07:14:27;;;;;;;5.30;3.90;;;;;;;37.07;22.25;100575.04;102471;279;105434;-55
2023/06/10 07:17:07;;;;;;;6.40;3.70;;;;;;;37.06;22.32;100577.80;102479;279;114248;-55
2023/06/10 07:19:42;;;;;;;;;;;;;;;37.37;22.33;100578.40;102459;279;96084;-57
2023/06/10 07:22:22;;;;;;;8.40;4.20;;;;;;;37.54;22.31;100575.36;102506;279;96309;-57
2023/06/10 07:24:59;;;;;;;8.00;3.90;;;;;;;37.63;22.13;100579.61;102456;279;119797;-56
2023/06/10 07:27:44;;;;;;;7.70;4.60;;;;;;;37.39;22.35;100581.73;102452;279;105380;-56
2023/06/10 07:30:16;;;;;;;4.60;3.90;;;;;;;37.59;22.23;100584.12;102486;279;115530;-55
2023/06/10 07:32:51;;;;;;;6.40;4.50;;;;;;;37.76;22.43;100580.33;102435;279;94841;-55
2023/06/10 07:35:34;;;;;;;7.50;3.90;;;;;;;37.98;22.31;100583.93;102506;279;98602;-58
2023/06/10 07:38:08;;;;;;;5.90;4.30;;;;;;;38.05;21.99;100587.08;102418;279;121383;-55
2023/06/10 07:40:41;;;;;;;6.60;4.60;;;;;;;37.97;22.18;100582.04;102475;279;104336;-58
2023/06/10 07:43:18;;;;;;;6.60;4.20;;;;;;;37.79;22.33;100590.48;102445;279;115736;-58
2023/06/10 07:45:53;;;;;;;5.70;4.10;;;;;;;37.56;22.26;100587.58;102484;279;93447;-55
2023/06/10 07:48:29;;;;;;;6.30;4.20;;;;;;;37.34;22.39;100590.14;102465;279;96441;-55
2023/06/10 07:51:00;;;;;;;8.00;4.20;;;;;;;37.51;22.53;100600.42;102501;279;119190;-55
2023/06/10 07:53:37;;;;;;;6.90;4.20;;;;;;;37.45;22.16;100596.80;102469;279;104464;-54
2023/06/10 07:56:17;;;;;;;6.30;4.00;;;;;;;37.30;22.12;100600.03;102493;268;114205;-54
2023/06/10 07:58:53;;;;;;;5.20;4.00;;;;;;;36.23;22.40;100606.63;102464;279;94718;-56
2023/06/10 08:01:27;;;;;;;6.50;4.30;;;;;;;35.69;22.94;100598.77;102454;279;98519;-56
2023/06/10 08:04:07;;;;;;;4.20;3.80;;;;;;;34.98;23.47;100604.27;102513;279;119841;-58
2023/06/10 08:06:49;;;;;;;6.60;4.60;;;;;;;34.79;24.07;100602.55;102462;279;105818;-57
2023/06/10 08:09:22;;;;;;;7.80;4.40;;;;;;;34.58;24.48;100605.52;102474;279;115889;-58
2023/06/10 08:11:59;;;;;;;6.50;4.20;;;;;;;34.87;24.96;100607.23;102464;279;95033;-59
2023/06/10 08:14:32;;;;;;;10.10;4.20;;;;;;;35.46;24.18;100610.28;102496;279;97881;-55
2023/06/10 08:17:07;;;;;;;6.70;4.20;;;;;;;35.12;24.08;100609.58;102420;279;121255;-55
2023/06/10 08:19:42;;;;;;;4.60;4.20;;;;;;;34.75;24.77;100611.33;102384;279;105853;-60
2023/06/10 08:22:16;;;;;;;5.90;4.30;;;;;;;34.27;24.81;100612.45;102400;279;114399;-60
2023/06/10 08:24:48;;;;;;;6.90;4.30;;;;;;;34.18;25.30;100615.62;102389;279;93216;-57
2023/06/10 08:27:25;;;;;;;5.90;4.10;;;;;;;34.39;24.92;100616.64;102461;279;96632;-58
2023/06/10 08:30:01;;;;;;;6.60;4.30;;;;;;;34.40;24.72;100614.67;102419;279;120727;-55
2023/06/10 08:32:41;;;;;;;9.90;4.10;;;;;;;34.72;24.87;100618.34;102447;279;104574;-55
2023/06/10 08:35:29;;;;;;;7.30;4.50;;;;;;;34.57;24.43;100612.46;102351;279;113711;-58
2023/06/10 08:38:07;;;;;;;8.40;5.20;;;;;;;34.40;24.90;100616.08;102303;279;93987;-58
2023/06/10 08:40:44;;;;;;;9.20;4.30;;;;;;;34.87;24.93;100617.42;102302;281;98528;-54
2023/06/10 08:43:30;;;;;;;6.50;4.00;;;;;;;34.53;24.44;100623.53;102440;279;122126;-55
2023/06/10 08:46:03;;;;;;;9.40;4.30;;;;;;;34.49;24.56;100618.33;102394;279;105922;-55
2023/06/10 08:48:43;;;;;;;11.60;4.40;;;;;;;34.48;24.62;100621.89;102365;279;114908;-56
2023/06/10 08:51:26;;;;;;;6.70;4.40;;;;;;;33.87;24.99;100625.34;102457;276;95210;-55
2023/06/10 08:54:12;;;;;;;7.10;4.20;;;;;;;33.74;25.12;100623.55;102419;279;97985;-54
2023/06/10 08:56:50;;;;;;;6.00;4.20;;;;;;;33.50;25.24;100624.04;102408;279;120220;-53
2023/06/10 08:59:22;;;;;;;6.60;4.40;;;;;;;32.73;25.51;100625.16;102423;279;104203;-55
2023/06/10 09:01:56;;;;;;;7.60;4.30;;;;;;;32.25;25.91;100627.09;102415;279;114965;-54
2023/06/10 09:04:31;;;;;;;9.40;4.10;;;;;;;31.96;26.31;100633.13;102413;279;94576;-59
2023/06/10 09:07:05;;;;;;;9.30;4.20;;;;;;;31.79;26.74;100632.84;102501;279;98147;-59
2023/06/10 09:09:37;;;;;;;6.70;4.30;;;;;;;31.30;26.52;100635.61;102464;279;120274;-55
2023/06/10 09:12:10;;;;;;;7.40;4.70;;;;;;;30.78;27.03;100632.70;102376;279;105282;-56
2023/06/10 09:14:41;;;;;;;5.80;4.30;;;;;;;30.55;27.09;100635.13;102400;279;114715;-56
2023/06/10 09:17:22;;;;;;;6.50;4.70;;;;;;;30.15;27.33;100635.70;102400;279;93412;-56
2023/06/10 09:19:56;;;;;;;4.80;4.00;;;;;;;30.23;27.96;100635.41;102449;279;98388;-55
2023/06/10 09:22:29;;;;;;;6.20;4.60;;;;;;;29.93;27.80;100641.33;102397;279;121050;-55
2023/06/10 09:25:10;;;;;;;7.20;4.20;;;;;;;29.48;28.27;100642.29;102454;279;104402;-57
2023/06/10 09:27:53;;;;;;;8.90;4.10;;;;;;;29.51;28.61;100640.83;102486;279;114847;-57
2023/06/10 09:30:32;;;;;;;6.90;3.60;;;;;;;29.37;28.16;100640.89;102439;279;94481;-57
2023/06/10 09:33:15;;;;;;;10.00;4.50;;;;;;;29.17;28.34;100647.66;102406;279;98557;-57
2023/06/10 09:35:51;;;;;;;6.90;4.00;;;;;;;29.19;28.64;100645.70;102437;279;121215;-57
2023/06/10 09:38:37;;;;;;;7.30;4.10;;;;;;;29.14;28.61;100641.20;102385;279;102895;-58
2023/06/10 09:41:19;;;;;;;7.10;4.00;;;;;;;29.09;28.51;100633.77;102378;279;115127;-57
2023/06/10 09:43:59;;;;;;;5.60;3.90;;;;;;;28.93;29.01;100638.75;102417;279;94099;-55
2023/06/10 09:46:35;;;;;;;8.40;3.70;;;;;;;28.79;29.02;100639.48;102368;279;95811;-56
2023/06/10 09:49:10;;;;;;;6.30;3.50;;;;;;;28.47;28.85;100638.98;102394;279;120064;-58
2023/06/10 09:51:51;;;;;;;7.10;4.20;;;;;;;28.51;29.15;100637.64;102404;279;105236;-58
2023/06/10 09:54:34;;;;;;;8.40;4.30;;;;;;;28.58;29.45;100641.25;102432;279;113725;-55
2023/06/10 09:57:11;;;;;;;4.10;3.40;;;;;;;28.63;28.71;100640.17;102414;279;94876;-55
2023/06/10 09:59:46;;;;;;;6.90;3.40;;;;;;;28.64;28.36;100641.72;102402;279;97777;-55
2023/06/10 10:02:19;;;;;;;6.40;3.70;;;;;;;28.57;27.79;100638.14;102380;279;120477;-55
2023/06/10 10:04:54;;;;;;;6.90;3.90;;;;;;;28.43;27.64;100635.21;102433;279;105557;-57
2023/06/10 10:07:29;;;;;;;4.40;3.40;;;;;;;28.37;27.58;100634.00;102378;279;114663;-58
2023/06/10 10:10:07;;;;;;;6.40;3.70;;;;;;;28.28;27.45;100629.04;102398;279;94267;-59
2023/06/10 10:12:47;;;;;;;6.00;3.70;;;;;;;27.96;27.93;100630.98;102463;267;96214;-58
2023/06/10 10:15:22;;;;;;;5.90;4.10;;;;;;;28.02;28.41;100631.68;102385;279;121508;-54
2023/06/10 10:18:05;;;;;;;5.90;4.40;;;;;;;28.10;28.68;100627.70;102428;279;105426;-56
2023/06/10 10:20:48;;;;;;;7.80;3.80;;;;;;;28.06;28.82;100619.43;102391;279;114833;-55
2023/06/10 10:23:30;;;;;;;7.20;3.90;;;;;;;28.14;29.23;100622.91;102434;279;94815;-55
2023/06/10 10:26:10;;;;;;;5.40;3.30;;;;;;;28.11;28.89;100619.91;102498;279;97726;-57
2023/06/10 10:28:48;;;;;;;5.70;3.80;;;;;;;28.15;29.04;100611.06;102415;279;120992;-57
2023/06/10 10:31:28;;;;;;;4.50;3.70;;;;;;;28.12;29.19;100604.89;102396;267;106297;-59
2023/06/10 10:34:10;;;;;;;6.30;4.20;;;;;;;28.13;29.01;100605.23;102388;279;114132;-56
2023/06/10 10:36:47;;;;;;;9.60;4.00;;;;;;;28.27;29.22;100598.48;102376;279;95267;-55
2023/06/10 10:39:21;;;;;;;7.60;4.40;;;;;;;28.15;28.82;100606.17;102429;279;96276;-58
2023/06/10 10:41:58;;;;;;;7.70;4.20;;;;;;;28.00;28.83;100606.82;102408;279;121238;-58
2023/06/10 10:44:31;;;;;;;6.00;4.50;;;;;;;28.21;29.03;100598.13;102439;279;106491;-56
2023/06/10 10:47:08;;;;;;;4.90;3.80;;;;;;;28.35;29.32;100600.75;102403;279;113171;-56
2023/06/10 10:49:43;;;;;;;9.60;4.40;;;;;;;28.34;29.16;100604.10;102396;279;94063;-55
2023/06/10 10:52:16;;;;;;;5.80;3.70;;;;;;;28.23;28.96;100605.17;102434;279;97236;-55
2023/06/10 10:54:56;;;;;;;6.10;3.30;;;;;;;28.25;28.10;100603.64;102441;279;120989;-55
2023/06/10 10:57:34;;;;;;;6.60;3.70;;;;;;;28.42;27.98;100601.57;102406;279;104911;-54
2023/06/10 11:00:11;;;;;;;8.30;3.70;;;;;;;28.53;28.20;100604.80;102227;279;116645;-58
2023/06/10 11:02:46;;;;;;;6.70;3.90;;;;;;;28.21;27.60;100601.09;102456;275;95128;-58
2023/06/10 11:05:18;;;;;;;4.20;3.50;;;;;;;28.06;27.49;100603.04;102518;279;98047;-55
2023/06/10 11:07:56;;;;;;;11.60;3.80;;;;;;;28.01;27.20;100602.92;102447;279;120676;-55
2023/06/10 11:10:43;;;;;;;5.90;3.20;;;;;;;27.93;27.20;100594.36;102454;279;106184;-55
2023/06/10 11:13:25;;;;;;;7.90;3.90;;;;;;;27.97;27.61;100600.45;102430;279;113779;-54
2023/06/10 11:16:04;;;;;;;4.90;3.50;;;;;;;28.03;27.53;100597.91;102488;279;94654;-55
2023/06/10 11:18:56;;;;;;;4.50;3.80;;;;;;;27.93;27.03;100596.59;101805;279;683566;-56
2023/06/10 11:21:38;;;;;;;5.30;3.70;;;;;;;27.94;27.15;100591.95;102498;279;121106;-59
2023/06/10 11:24:24;;;;;;;9.90;3.80;;;;;;;27.96;26.67;100592.87;102499;291;105908;-57
2023/06/10 11:27:16;;;;;;;6.50;3.90;;;;;;;27.80;26.41;100601.38;102230;273;114248;-57
2023/06/10 11:30:20;;;;;;;6.10;4.20;;;;;;;27.84;26.70;100596.59;102478;279;94051;-56
2023/06/10 11:32:55;;;;;;;6.40;3.80;;;;;;;27.89;26.83;100597.47;102449;279;97670;-56
2023/06/10 11:35:31;;;;;;;6.50;3.80;;;;;;;27.87;26.77;100602.72;102475;279;120017;-55
2023/06/10 11:38:05;;;;;;;4.60;3.50;;;;;;;27.69;26.91;100598.64;102486;279;104716;-55
2023/06/10 11:40:48;;;;;;;5.70;3.80;;;;;;;27.64;26.64;100591.70;102488;279;113293;-58
2023/06/10 11:43:29;;;;;;;7.50;4.40;;;;;;;27.87;26.82;100593.71;102438;279;94319;-58
2023/06/10 11:46:09;;;;;;;5.50;3.50;;;;;;;27.85;26.90;100590.69;102465;279;98773;-56
2023/06/10 11:48:48;;;;;;;6.40;4.00;;;;;;;27.89;27.22;100592.36;102484;279;120703;-56
2023/06/10 11:51:33;;;;;;;5.80;4.20;;;;;;;27.90;27.58;100585.67;102448;279;104947;-59
2023/06/10 11:54:14;;;;;;;6.60;4.00;;;;;;;27.95;28.00;100584.77;102354;279;114643;-55
2023/06/10 11:57:00;;;;;;;6.60;4.20;;;;;;;27.97;28.03;100582.02;102400;279;95363;-55
2023/06/10 11:59:36;;;;;;;9.40;4.50;;;;;;;27.94;28.38;100584.52;102425;279;98049;-54
2023/06/10 12:02:17;;;;;;;;;;;;;;;27.62;28.50;100586.00;102420;279;119687;-54
2023/06/10 12:04:54;;;;;;;5.30;4.30;;;;;;;27.52;28.97;100572.36;102433;279;104969;-58